createdAt,value
2024-04-26T00:00:11.648Z,0.00
2024-04-26T00:01:11.630Z,0.00
2024-04-26T00:02:11.625Z,0.00
2024-04-26T00:03:11.725Z,0.00
2024-04-26T00:04:11.602Z,0.00
2024-04-26T00:05:11.595Z,0.00
2024-04-26T00:06:11.566Z,0.00
2024-04-26T00:07:11.569Z,0.00
2024-04-26T00:08:11.540Z,0.00
2024-04-26T00:09:11.540Z,0.00
2024-04-26T00:10:11.517Z,0.00
2024-04-26T00:11:11.506Z,0.00
2024-04-26T00:12:11.656Z,0.00
2024-04-26T00:13:11.479Z,0.00
2024-04-26T00:14:11.490Z,0.00
2024-04-26T00:15:11.444Z,0.00
2024-04-26T00:16:11.440Z,0.00
2024-04-26T00:17:11.426Z,0.00
2024-04-26T00:18:11.499Z,0.00
2024-04-26T00:19:11.439Z,0.00
2024-04-26T00:20:11.397Z,0.00
2024-04-26T00:21:11.370Z,0.00
2024-04-26T00:22:11.357Z,0.00
2024-04-26T00:23:11.361Z,0.00
2024-04-26T00:24:11.352Z,0.00
2024-04-26T00:25:11.316Z,0.00
2024-04-26T00:26:11.313Z,0.00
2024-04-26T00:27:11.495Z,0.00
2024-04-26T00:28:11.302Z,0.00
2024-04-26T00:29:11.272Z,0.00
2024-04-26T00:30:11.258Z,0.00
2024-04-26T00:31:11.250Z,0.00
2024-04-26T00:32:11.275Z,0.00
2024-04-26T00:33:11.362Z,0.00
2024-04-26T00:34:11.220Z,0.00
2024-04-26T00:35:11.185Z,0.00
2024-04-26T00:36:11.181Z,0.00
2024-04-26T00:37:11.171Z,0.00
2024-04-26T00:38:11.154Z,0.00
2024-04-26T00:39:11.148Z,0.00
2024-04-26T00:40:11.125Z,0.00
2024-04-26T00:41:11.106Z,0.00
2024-04-26T00:42:11.121Z,0.00
2024-04-26T00:43:11.090Z,0.00
2024-04-26T00:44:11.108Z,0.00
2024-04-26T00:45:11.052Z,0.00
2024-04-26T00:46:11.072Z,0.00
2024-04-26T00:47:11.062Z,0.00
2024-04-26T00:48:11.155Z,0.00
2024-04-26T00:49:11.129Z,0.00
2024-04-26T00:50:11.015Z,0.00
2024-04-26T00:51:11.001Z,0.00
2024-04-26T00:52:10.976Z,0.00
2024-04-26T00:53:10.960Z,0.00
2024-04-26T00:54:10.945Z,0.00
2024-04-26T00:55:10.938Z,0.00
2024-04-26T00:56:10.943Z,0.00
2024-04-26T00:57:10.920Z,0.00
2024-04-26T00:58:10.900Z,0.00
2024-04-26T00:59:10.881Z,0.00
2024-04-26T01:00:10.876Z,0.00
2024-04-26T01:01:10.923Z,0.00
2024-04-26T01:02:10.886Z,0.00
2024-04-26T01:03:10.828Z,0.00
2024-04-26T01:04:10.838Z,0.00
2024-04-26T01:05:10.818Z,0.00
2024-04-26T01:06:10.796Z,0.00
2024-04-26T01:07:10.766Z,0.00
2024-04-26T01:08:13.542Z,0.00
2024-04-26T01:09:10.759Z,0.00
2024-04-26T01:10:10.790Z,0.00
2024-04-26T01:11:10.785Z,0.00
2024-04-26T01:12:10.819Z,0.00
2024-04-26T01:13:10.690Z,0.00
2024-04-26T01:14:10.691Z,0.00
2024-04-26T01:15:10.671Z,0.00
2024-04-26T01:16:10.678Z,0.00
2024-04-26T01:17:10.698Z,0.00
2024-04-26T01:18:10.808Z,0.00
2024-04-26T01:19:10.660Z,0.00
2024-04-26T01:20:10.636Z,0.00
2024-04-26T01:21:10.585Z,0.00
2024-04-26T01:22:10.583Z,0.00
2024-04-26T01:23:10.567Z,0.00
2024-04-26T01:24:10.567Z,0.00
2024-04-26T01:25:10.544Z,0.00
2024-04-26T01:26:10.536Z,0.00
2024-04-26T01:27:10.518Z,0.00
2024-04-26T01:28:10.519Z,0.00
2024-04-26T01:29:10.511Z,0.00
2024-04-26T01:30:10.477Z,0.00
2024-04-26T01:31:10.459Z,0.00
2024-04-26T01:32:10.497Z,0.00
2024-04-26T01:33:10.532Z,0.00
2024-04-26T01:35:10.408Z,0.00
2024-04-26T01:36:10.437Z,0.00
2024-04-26T01:37:10.391Z,0.00
2024-04-26T01:38:10.382Z,0.00
2024-04-26T01:39:10.393Z,0.00
2024-04-26T01:40:10.355Z,0.00
2024-04-26T01:41:10.348Z,0.00
2024-04-26T01:42:10.432Z,0.00
2024-04-26T01:43:10.325Z,0.00
2024-04-26T01:44:10.293Z,0.00
2024-04-26T01:45:10.324Z,0.00
2024-04-26T01:46:10.324Z,0.00
2024-04-26T01:47:10.267Z,0.00
2024-04-26T01:48:10.337Z,0.00
2024-04-26T01:49:10.241Z,0.00
2024-04-26T01:50:10.209Z,0.00
2024-04-26T01:51:10.232Z,0.00
2024-04-26T01:52:10.197Z,0.00
2024-04-26T01:53:10.188Z,0.00
2024-04-26T01:54:10.196Z,0.00
2024-04-26T01:55:10.149Z,0.00
2024-04-26T01:56:10.139Z,0.00
2024-04-26T01:57:10.203Z,0.00
2024-04-26T01:58:10.109Z,0.00
2024-04-26T01:59:10.108Z,0.00
2024-04-26T02:00:10.104Z,0.00
2024-04-26T02:01:10.112Z,0.00
2024-04-26T02:02:10.084Z,0.00
2024-04-26T02:03:10.258Z,0.00
2024-04-26T02:04:10.115Z,0.00
2024-04-26T02:05:10.036Z,0.00
2024-04-26T02:06:10.122Z,0.00
2024-04-26T02:07:10.023Z,0.00
2024-04-26T02:08:09.984Z,0.00
2024-04-26T02:09:10.035Z,0.00
2024-04-26T02:10:09.946Z,0.00
2024-04-26T02:11:10.036Z,0.00
2024-04-26T02:12:09.953Z,0.00
2024-04-26T02:13:09.924Z,0.00
2024-04-26T02:14:09.923Z,0.00
2024-04-26T02:15:09.935Z,0.00
2024-04-26T02:16:09.895Z,0.00
2024-04-26T02:17:09.973Z,0.00
2024-04-26T02:18:09.884Z,0.00
2024-04-26T02:19:09.914Z,0.00
2024-04-26T02:20:09.851Z,0.00
2024-04-26T02:21:10.179Z,0.00
2024-04-26T02:22:09.798Z,0.00
2024-04-26T02:23:09.804Z,0.00
2024-04-26T02:24:09.838Z,0.00
2024-04-26T02:25:09.794Z,0.00
2024-04-26T02:26:09.758Z,0.00
2024-04-26T02:27:09.923Z,0.00
2024-04-26T02:28:09.729Z,0.00
2024-04-26T02:29:09.720Z,0.00
2024-04-26T02:30:09.939Z,0.00
2024-04-26T02:31:09.686Z,0.00
2024-04-26T02:32:09.690Z,0.00
2024-04-26T02:33:09.812Z,0.00
2024-04-26T02:34:09.789Z,0.00
2024-04-26T02:35:09.643Z,0.00
2024-04-26T02:36:09.672Z,0.00
2024-04-26T02:37:09.617Z,0.00
2024-04-26T02:38:09.597Z,0.00
2024-04-26T02:39:09.603Z,0.00
2024-04-26T02:40:09.573Z,0.00
2024-04-26T02:41:09.552Z,0.00
2024-04-26T02:42:09.577Z,0.00
2024-04-26T02:43:09.535Z,0.00
2024-04-26T02:44:09.539Z,0.00
2024-04-26T02:45:09.565Z,0.00
2024-04-26T02:46:09.494Z,0.00
2024-04-26T02:47:09.642Z,0.00
2024-04-26T02:48:09.626Z,0.00
2024-04-26T02:49:09.472Z,0.00
2024-04-26T02:50:09.439Z,0.00
2024-04-26T02:51:09.526Z,0.00
2024-04-26T02:52:09.422Z,0.00
2024-04-26T02:53:09.402Z,0.00
2024-04-26T02:54:09.490Z,0.00
2024-04-26T02:55:09.386Z,0.00
2024-04-26T02:56:09.384Z,0.00
2024-04-26T02:57:09.376Z,0.00
2024-04-26T02:58:09.351Z,0.00
2024-04-26T02:59:09.341Z,0.00
2024-04-26T03:00:09.450Z,0.00
2024-04-26T03:01:09.360Z,0.00
2024-04-26T03:02:09.398Z,0.00
2024-04-26T03:03:09.482Z,0.00
2024-04-26T03:04:09.297Z,0.00
2024-04-26T03:05:09.247Z,0.00
2024-04-26T03:06:09.625Z,0.00
2024-04-26T03:07:09.225Z,0.00
2024-04-26T03:08:09.221Z,0.00
2024-04-26T03:09:09.216Z,0.00
2024-04-26T03:10:09.203Z,0.00
2024-04-26T03:11:09.284Z,0.00
2024-04-26T03:12:09.255Z,0.00
2024-04-26T03:13:09.156Z,0.00
2024-04-26T03:14:09.137Z,0.00
2024-04-26T03:15:09.160Z,0.00
2024-04-26T03:16:09.129Z,0.00
2024-04-26T03:17:09.129Z,0.00
2024-04-26T03:18:09.127Z,0.00
2024-04-26T03:19:09.364Z,0.00
2024-04-26T03:20:09.066Z,0.00
2024-04-26T03:21:09.340Z,0.00
2024-04-26T03:22:09.036Z,0.00
2024-04-26T03:23:09.024Z,0.00
2024-04-26T03:24:09.064Z,0.00
2024-04-26T03:25:08.992Z,0.00
2024-04-26T03:26:08.980Z,0.00
2024-04-26T03:27:09.082Z,0.00
2024-04-26T03:28:08.957Z,0.00
2024-04-26T03:29:08.944Z,0.00
2024-04-26T03:30:08.980Z,0.00
2024-04-26T03:31:09.018Z,0.00
2024-04-26T03:32:08.949Z,0.00
2024-04-26T03:33:09.057Z,0.00
2024-04-26T03:34:08.886Z,0.00
2024-04-26T03:35:08.865Z,0.00
2024-04-26T03:48:40.604Z,0.00
2024-04-26T03:49:40.632Z,4.00
2024-04-26T03:50:40.481Z,4.00
2024-04-26T03:51:40.432Z,4.00
2024-04-26T03:52:40.421Z,4.00
2024-04-26T03:53:40.437Z,4.00
2024-04-26T03:54:40.378Z,8.00
2024-04-26T03:55:40.385Z,4.00
2024-04-26T03:56:40.403Z,8.00
2024-04-26T03:57:40.352Z,8.00
2024-04-26T03:58:40.329Z,12.00
2024-04-26T03:59:40.435Z,12.00
2024-04-26T04:00:40.309Z,12.00
2024-04-26T04:01:40.287Z,16.00
2024-04-26T04:02:40.455Z,16.00
2024-04-26T04:03:40.555Z,16.00
2024-04-26T04:04:40.265Z,20.00
2024-04-26T04:05:40.311Z,20.00
2024-04-26T04:06:40.227Z,24.00
2024-04-26T04:07:40.238Z,24.00
2024-04-26T04:08:40.212Z,28.00
2024-04-26T04:09:40.200Z,32.00
2024-04-26T04:10:40.173Z,28.00
2024-04-26T04:11:40.254Z,32.00
2024-04-26T04:12:40.185Z,36.00
2024-04-26T04:13:40.150Z,36.00
2024-04-26T04:14:40.167Z,40.00
2024-04-26T04:15:40.148Z,44.00
2024-04-26T04:16:40.103Z,48.00
2024-04-26T04:17:40.306Z,48.00
2024-04-26T04:18:40.157Z,52.00
2024-04-26T04:19:40.065Z,56.00
2024-04-26T04:20:40.106Z,56.00
2024-04-26T04:21:40.048Z,60.00
2024-04-26T04:22:40.024Z,64.00
2024-04-26T04:23:40.058Z,64.00
2024-04-26T04:24:39.998Z,68.00
2024-04-26T04:25:39.998Z,72.00
2024-04-26T04:26:39.997Z,72.00
2024-04-26T04:27:39.988Z,76.00
2024-04-26T04:28:39.972Z,80.00
2024-04-26T04:29:39.978Z,84.00
2024-04-26T04:30:39.920Z,84.00
2024-04-26T04:31:39.921Z,88.00
2024-04-26T04:32:40.032Z,88.00
2024-04-26T04:33:40.103Z,92.00
2024-04-26T04:34:40.113Z,96.00
2024-04-26T04:35:39.890Z,96.00
2024-04-26T04:36:39.873Z,100.00
2024-04-26T04:37:39.853Z,104.00
2024-04-26T04:38:39.868Z,108.00
2024-04-26T04:39:39.815Z,108.00
2024-04-26T04:40:39.809Z,112.00
2024-04-26T04:41:39.858Z,112.00
2024-04-26T04:42:39.780Z,112.00
2024-04-26T04:43:39.769Z,116.00
2024-04-26T04:44:39.842Z,116.00
2024-04-26T04:45:39.744Z,120.00
2024-04-26T04:46:39.782Z,124.00
2024-04-26T04:47:39.878Z,124.00
2024-04-26T04:48:39.813Z,128.00
2024-04-26T04:49:39.684Z,128.00
2024-04-26T04:50:39.717Z,132.00
2024-04-26T04:51:39.677Z,132.00
2024-04-26T04:52:39.648Z,136.00
2024-04-26T04:53:39.702Z,136.00
2024-04-26T04:54:39.620Z,140.00
2024-04-26T04:55:39.631Z,140.00
2024-04-26T04:56:39.633Z,144.00
2024-04-26T04:57:39.586Z,144.00
2024-04-26T04:58:39.575Z,148.00
2024-04-26T04:59:39.583Z,152.00
2024-04-26T05:00:39.602Z,148.00
2024-04-26T05:01:39.535Z,152.00
2024-04-26T05:02:39.765Z,156.00
2024-04-26T05:03:39.653Z,160.00
2024-04-26T05:04:39.613Z,160.00
2024-04-26T05:05:39.550Z,160.00
2024-04-26T05:06:39.473Z,160.00
2024-04-26T05:07:39.461Z,168.00
2024-04-26T05:08:39.488Z,168.00
2024-04-26T05:09:39.450Z,172.00
2024-04-26T05:10:39.420Z,172.00
2024-04-26T05:11:39.522Z,172.00
2024-04-26T05:12:39.530Z,176.00
2024-04-26T05:13:39.382Z,176.00
2024-04-26T05:14:39.425Z,176.00
2024-04-26T05:15:39.359Z,180.00
2024-04-26T05:16:39.342Z,180.00
2024-04-26T05:17:41.253Z,180.00
2024-04-26T05:18:39.506Z,184.00
2024-04-26T05:19:39.389Z,184.00
2024-04-26T05:20:39.327Z,184.00
2024-04-26T05:21:39.281Z,188.00
2024-04-26T05:22:39.274Z,188.00
2024-04-26T05:23:39.288Z,188.00
2024-04-26T05:24:39.245Z,192.00
2024-04-26T05:25:39.228Z,196.00
2024-04-26T05:26:39.251Z,196.00
2024-04-26T05:27:39.220Z,196.00
2024-04-26T05:28:39.199Z,200.00
2024-04-26T05:29:39.231Z,200.00
2024-04-26T05:30:39.220Z,204.00
2024-04-26T05:31:39.171Z,204.00
2024-04-26T05:32:39.331Z,204.00
2024-04-26T05:33:39.332Z,208.00
2024-04-26T05:34:39.150Z,212.00
2024-04-26T05:35:39.268Z,212.00
2024-04-26T05:36:39.101Z,212.00
2024-04-26T05:37:40.759Z,216.00
2024-04-26T05:38:39.118Z,220.00
2024-04-26T05:39:39.063Z,220.00
2024-04-26T05:40:39.107Z,216.00
2024-04-26T05:41:39.062Z,220.00
2024-04-26T05:42:39.041Z,220.00
2024-04-26T05:43:39.049Z,224.00
2024-04-26T05:44:39.021Z,224.00
2024-04-26T05:45:38.982Z,228.00
2024-04-26T05:46:38.971Z,232.00
2024-04-26T05:47:39.166Z,232.00
2024-04-26T05:48:39.242Z,236.00
2024-04-26T05:49:39.057Z,232.00
2024-04-26T05:50:38.930Z,236.00
2024-04-26T05:51:38.937Z,240.00
2024-04-26T05:52:38.906Z,240.00
2024-04-26T05:53:38.909Z,240.00
2024-04-26T05:54:38.861Z,244.00
2024-04-26T05:55:38.858Z,244.00
2024-04-26T05:56:38.928Z,244.00
2024-04-26T05:57:38.846Z,248.00
2024-04-26T05:58:38.815Z,248.00
2024-04-26T05:59:38.841Z,248.00
2024-04-26T06:00:38.821Z,248.00
2024-04-26T06:01:38.791Z,252.00
2024-04-26T06:02:38.894Z,256.00
2024-04-26T06:03:39.463Z,252.00
2024-04-26T06:04:38.833Z,256.00
2024-04-26T06:05:38.807Z,256.00
2024-04-26T06:06:38.746Z,256.00
2024-04-26T06:07:38.708Z,260.00
2024-04-26T06:08:38.762Z,260.00
2024-04-26T06:09:38.670Z,260.00
2024-04-26T06:10:38.713Z,260.00
2024-04-26T06:11:38.731Z,264.00
2024-04-26T06:12:38.635Z,268.00
2024-04-26T06:13:38.619Z,264.00
2024-04-26T06:14:38.638Z,268.00
2024-04-26T06:15:38.605Z,272.00
2024-04-26T06:16:38.592Z,272.00
2024-04-26T06:17:38.750Z,272.00
2024-04-26T06:18:38.847Z,276.00
2024-04-26T06:19:38.740Z,276.00
2024-04-26T06:20:38.565Z,276.00
2024-04-26T06:21:38.558Z,276.00
2024-04-26T06:22:38.513Z,280.00
2024-04-26T06:23:38.512Z,280.00
2024-04-26T06:24:38.496Z,284.00
2024-04-26T06:25:38.471Z,284.00
2024-04-26T06:26:38.567Z,284.00
2024-04-26T06:27:38.449Z,284.00
2024-04-26T06:28:38.432Z,288.00
2024-04-26T06:29:38.478Z,288.00
2024-04-26T06:30:38.408Z,288.00
2024-04-26T06:31:38.397Z,292.00
2024-04-26T06:32:38.726Z,292.00
2024-04-26T06:33:38.502Z,292.00
2024-04-26T06:34:38.368Z,296.00
2024-04-26T06:35:38.385Z,296.00
2024-04-26T06:36:38.337Z,296.00
2024-04-26T06:37:38.322Z,296.00
2024-04-26T06:38:38.439Z,300.00
2024-04-26T06:39:38.304Z,300.00
2024-04-26T06:40:38.283Z,304.00
2024-04-26T06:41:38.299Z,304.00
2024-04-26T06:42:38.262Z,304.00
2024-04-26T06:43:38.243Z,304.00
2024-04-26T06:44:38.275Z,308.00
2024-04-26T06:45:38.229Z,308.00
2024-04-26T06:46:38.207Z,308.00
2024-04-26T06:47:38.402Z,312.00
2024-04-26T06:48:38.405Z,308.00
2024-04-26T06:49:38.421Z,312.00
2024-04-26T06:50:38.164Z,312.00
2024-04-26T06:51:38.142Z,312.00
2024-04-26T06:52:38.134Z,316.00
2024-04-26T06:53:38.220Z,316.00
2024-04-26T06:54:38.114Z,316.00
2024-04-26T06:55:38.083Z,320.00
2024-04-26T06:56:38.097Z,320.00
2024-04-26T06:57:38.093Z,320.00
2024-04-26T06:58:38.070Z,320.00
2024-04-26T06:59:38.075Z,320.00
2024-04-26T07:00:38.077Z,324.00
2024-04-26T07:01:38.208Z,324.00
2024-04-26T07:02:38.362Z,328.00
2024-04-26T07:03:38.147Z,328.00
2024-04-26T07:04:38.088Z,328.00
2024-04-26T07:05:38.044Z,332.00
2024-04-26T07:06:37.950Z,332.00
2024-04-26T07:07:37.948Z,336.00
2024-04-26T07:08:37.995Z,336.00
2024-04-26T07:09:37.991Z,336.00
2024-04-26T07:10:37.906Z,340.00
2024-04-26T07:11:37.960Z,340.00
2024-04-26T07:12:37.902Z,340.00
2024-04-26T07:13:37.861Z,344.00
2024-04-26T07:14:37.900Z,344.00
2024-04-26T07:15:37.841Z,348.00
2024-04-26T07:16:37.881Z,348.00
2024-04-26T07:17:38.008Z,348.00
2024-04-26T07:18:37.979Z,348.00
2024-04-26T07:19:37.935Z,352.00
2024-04-26T07:20:37.875Z,352.00
2024-04-26T07:21:37.771Z,356.00
2024-04-26T07:22:48.492Z,356.00
2024-04-26T07:23:38.763Z,360.00
2024-04-26T07:24:37.757Z,360.00
2024-04-26T07:25:37.710Z,364.00
2024-04-26T07:26:37.771Z,364.00
2024-04-26T07:27:37.681Z,368.00
2024-04-26T07:28:37.688Z,368.00
2024-04-26T07:29:37.685Z,372.00
2024-04-26T07:30:37.663Z,372.00
2024-04-26T07:31:37.642Z,372.00
2024-04-26T07:32:37.806Z,376.00
2024-04-26T07:33:37.680Z,380.00
2024-04-26T07:34:37.596Z,376.00
2024-04-26T07:35:37.607Z,380.00
2024-04-26T07:36:37.570Z,380.00
2024-04-26T07:37:37.549Z,384.00
2024-04-26T07:38:37.619Z,384.00
2024-04-26T07:39:37.524Z,392.00
2024-04-26T07:40:37.565Z,392.00
2024-04-26T07:41:37.540Z,400.00
2024-04-26T07:42:37.516Z,388.00
2024-04-26T07:43:37.469Z,396.00
2024-04-26T07:44:37.511Z,396.00
2024-04-26T07:45:37.448Z,396.00
2024-04-26T07:46:37.433Z,400.00
2024-04-26T07:47:37.531Z,412.00
2024-04-26T07:48:37.561Z,416.00
2024-04-26T07:49:37.560Z,424.00
2024-04-26T07:50:37.497Z,424.00
2024-04-26T07:51:37.366Z,424.00
2024-04-26T07:52:37.356Z,436.00
2024-04-26T07:53:37.434Z,440.00
2024-04-26T07:54:37.355Z,448.00
2024-04-26T07:55:37.321Z,452.00
2024-04-26T07:56:37.479Z,452.00
2024-04-26T07:57:37.311Z,460.00
2024-04-26T07:58:37.276Z,468.00
2024-04-26T07:59:37.309Z,472.00
2024-04-26T08:00:37.363Z,476.00
2024-04-26T08:01:37.234Z,488.00
2024-04-26T08:02:37.323Z,500.00
2024-04-26T08:03:37.416Z,512.00
2024-04-26T08:04:37.247Z,528.00
2024-04-26T08:05:37.206Z,540.00
2024-04-26T08:06:37.169Z,544.00
2024-04-26T08:07:37.172Z,584.00
2024-04-26T08:08:37.170Z,628.00
2024-04-26T08:09:37.125Z,684.00
2024-04-26T08:10:37.129Z,724.00
2024-04-26T08:11:37.223Z,744.00
2024-04-26T08:12:37.255Z,748.00
2024-04-26T08:13:37.086Z,720.00
2024-04-26T08:14:37.106Z,772.00
2024-04-26T08:15:37.070Z,728.00
2024-04-26T08:16:37.044Z,668.00
2024-04-26T08:17:37.250Z,576.00
2024-04-26T08:18:37.160Z,672.00
2024-04-26T08:19:37.005Z,588.00
2024-04-26T08:20:37.027Z,640.00
2024-04-26T08:21:36.983Z,576.00
2024-04-26T08:22:36.993Z,632.00
2024-04-26T08:23:37.011Z,712.00
2024-04-26T08:24:44.654Z,760.00
2024-04-26T08:25:37.930Z,832.00
2024-04-26T08:26:36.966Z,912.00
2024-04-26T08:27:36.914Z,964.00
2024-04-26T08:28:36.893Z,1016.00
2024-04-26T08:29:36.881Z,1064.00
2024-04-26T08:30:36.882Z,1108.00
2024-04-26T08:31:36.842Z,1128.00
2024-04-26T08:32:40.097Z,1196.00
2024-04-26T08:33:37.996Z,1128.00
2024-04-26T08:34:37.024Z,1232.00
2024-04-26T08:35:37.218Z,1336.00
2024-04-26T08:36:36.827Z,1296.00
2024-04-26T08:37:36.776Z,1360.00
2024-04-26T08:38:36.860Z,1348.00
2024-04-26T08:39:43.483Z,1308.00
2024-04-26T08:40:37.747Z,1292.00
2024-04-26T08:41:36.842Z,1252.00
2024-04-26T08:42:36.723Z,1252.00
2024-04-26T08:43:36.706Z,1260.00
2024-04-26T08:44:36.721Z,1268.00
2024-04-26T08:45:36.667Z,1284.00
2024-04-26T08:46:44.443Z,1296.00
2024-04-26T08:47:37.818Z,1396.00
2024-04-26T08:48:36.794Z,1380.00
2024-04-26T08:49:36.724Z,1316.00
2024-04-26T08:50:36.691Z,1300.00
2024-04-26T08:51:36.611Z,1292.00
2024-04-26T08:52:36.593Z,1244.00
2024-04-26T08:53:36.628Z,1104.00
2024-04-26T08:54:36.569Z,1036.00
2024-04-26T08:55:36.610Z,1012.00
2024-04-26T08:56:36.609Z,1036.00
2024-04-26T08:57:36.528Z,1116.00
2024-04-26T08:58:36.523Z,1328.00
2024-04-26T08:59:36.547Z,1340.00
2024-04-26T09:00:36.802Z,1468.00
2024-04-26T09:01:36.482Z,1448.00
2024-04-26T09:02:36.542Z,1364.00
2024-04-26T09:03:36.581Z,1352.00
2024-04-26T09:04:36.487Z,1224.00
2024-04-26T09:05:36.494Z,1516.00
2024-04-26T09:06:36.403Z,1624.00
2024-04-26T09:07:36.387Z,1636.00
2024-04-26T09:08:36.417Z,1532.00
2024-04-26T09:09:36.390Z,1576.00
2024-04-26T09:10:36.390Z,1720.00
2024-04-26T09:11:36.425Z,1556.00
2024-04-26T09:12:42.725Z,1540.00
2024-04-26T09:13:37.326Z,1608.00
2024-04-26T09:14:36.331Z,1724.00
2024-04-26T09:15:36.285Z,1668.00
2024-04-26T09:16:36.276Z,1536.00
2024-04-26T09:17:36.438Z,1528.00
2024-04-26T09:18:36.470Z,1512.00
2024-04-26T09:19:36.304Z,1448.00
2024-04-26T09:20:36.281Z,1412.00
2024-04-26T09:21:36.202Z,1396.00
2024-04-26T09:22:36.201Z,1432.00
2024-04-26T09:23:36.226Z,1420.00
2024-04-26T09:24:36.183Z,1336.00
2024-04-26T09:25:36.233Z,1252.00
2024-04-26T09:26:36.236Z,1260.00
2024-04-26T09:27:36.131Z,1280.00
2024-04-26T09:28:36.128Z,1324.00
2024-04-26T09:29:36.205Z,1344.00
2024-04-26T09:30:36.094Z,1344.00
2024-04-26T09:31:36.071Z,1416.00
2024-04-26T09:32:43.977Z,1440.00
2024-04-26T09:48:30.604Z,1212.00
2024-04-26T09:49:30.509Z,1236.00
2024-04-26T09:50:30.443Z,1184.00
2024-04-26T09:51:37.741Z,1284.00
2024-04-26T09:52:31.409Z,1172.00
2024-04-26T09:53:30.486Z,1064.00
2024-04-26T09:54:30.390Z,1016.00
2024-04-26T09:55:30.343Z,920.00
2024-04-26T09:56:30.369Z,820.00
2024-04-26T09:57:30.314Z,804.00
2024-04-26T09:58:30.313Z,804.00
2024-04-26T09:59:30.346Z,836.00
2024-04-26T10:00:30.315Z,860.00
2024-04-26T10:01:30.272Z,888.00
2024-04-26T10:02:30.340Z,908.00
2024-04-26T10:03:30.358Z,976.00
2024-04-26T10:04:30.478Z,1028.00
2024-04-26T10:05:30.461Z,1044.00
2024-04-26T10:06:30.261Z,1156.00
2024-04-26T10:07:30.183Z,1248.00
2024-04-26T10:08:30.237Z,1304.00
2024-04-26T10:09:30.167Z,1396.00
2024-04-26T10:10:30.173Z,1532.00
2024-04-26T10:11:35.407Z,1604.00
2024-04-26T10:12:31.196Z,1704.00
2024-04-26T10:13:30.114Z,1776.00
2024-04-26T10:14:30.145Z,1900.00
2024-04-26T10:15:30.092Z,1988.00
2024-04-26T10:16:30.075Z,2200.00
2024-04-26T10:17:30.186Z,2376.00
2024-04-26T10:18:30.220Z,2012.00
2024-04-26T10:19:30.099Z,2040.00
2024-04-26T10:20:30.069Z,2572.00
2024-04-26T10:21:30.002Z,1808.00
2024-04-26T10:22:30.009Z,1752.00
2024-04-26T10:23:30.090Z,1744.00
2024-04-26T10:24:30.013Z,1696.00
2024-04-26T10:25:30.108Z,1600.00
2024-04-26T10:26:29.962Z,1508.00
2024-04-26T10:27:29.941Z,1504.00
2024-04-26T10:28:29.926Z,1524.00
2024-04-26T10:29:29.946Z,1480.00
2024-04-26T10:30:29.911Z,1472.00
2024-04-26T10:31:29.902Z,1456.00
2024-04-26T10:32:30.010Z,1480.00
2024-04-26T10:33:29.972Z,1512.00
2024-04-26T10:34:29.967Z,1516.00
2024-04-26T10:35:29.856Z,1544.00
2024-04-26T10:36:29.810Z,1440.00
2024-04-26T10:37:29.789Z,1280.00
2024-04-26T10:38:29.837Z,1200.00
2024-04-26T10:39:29.799Z,1156.00
2024-04-26T10:40:29.768Z,1124.00
2024-04-26T10:41:29.787Z,1108.00
2024-04-26T10:42:29.874Z,1100.00
2024-04-26T10:43:29.776Z,1092.00
2024-04-26T10:44:29.826Z,1084.00
2024-04-26T10:45:29.687Z,1084.00
2024-04-26T10:46:29.697Z,1128.00
2024-04-26T10:47:29.987Z,1160.00
2024-04-26T10:48:30.084Z,1172.00
2024-04-26T10:49:29.970Z,1236.00
2024-04-26T10:50:29.653Z,1348.00
2024-04-26T10:51:29.627Z,1532.00
2024-04-26T10:52:29.613Z,1640.00
2024-04-26T10:53:29.625Z,1636.00
2024-04-26T10:54:29.591Z,1640.00
2024-04-26T10:55:29.560Z,1644.00
2024-04-26T10:56:30.544Z,1684.00
2024-04-26T10:57:29.563Z,1796.00
2024-04-26T10:58:29.534Z,2020.00
2024-04-26T10:59:29.560Z,2204.00
2024-04-26T11:00:29.577Z,2392.00
2024-04-26T11:01:29.498Z,2440.00
2024-04-26T11:02:29.611Z,2472.00
2024-04-26T11:03:29.514Z,2300.00
2024-04-26T11:04:29.725Z,2112.00
2024-04-26T11:05:29.625Z,2028.00
2024-04-26T11:06:29.777Z,2100.00
2024-04-26T11:07:29.415Z,2160.00
2024-04-26T11:08:29.486Z,2244.00
2024-04-26T11:09:29.435Z,2324.00
2024-04-26T11:10:29.391Z,2416.00
2024-04-26T11:11:29.462Z,2484.00
2024-04-26T11:12:29.436Z,2396.00
2024-04-26T11:13:29.340Z,2376.00
2024-04-26T11:14:29.383Z,2260.00
2024-04-26T11:15:29.332Z,2140.00
2024-04-26T11:16:29.306Z,1972.00
2024-04-26T11:17:29.314Z,1844.00
2024-04-26T11:18:29.377Z,1888.00
2024-04-26T11:19:29.500Z,1872.00
2024-04-26T11:20:29.260Z,1804.00
2024-04-26T11:21:29.229Z,1780.00
2024-04-26T11:22:29.211Z,1856.00
2024-04-26T11:23:29.238Z,1932.00
2024-04-26T11:24:29.182Z,1968.00
2024-04-26T11:25:29.289Z,2076.00
2024-04-26T11:26:29.240Z,2100.00
2024-04-26T11:27:29.142Z,2092.00
2024-04-26T11:28:29.137Z,1976.00
2024-04-26T11:29:29.290Z,1920.00
2024-04-26T11:30:29.117Z,1868.00
2024-04-26T11:31:29.098Z,1884.00
2024-04-26T11:32:29.356Z,1884.00
2024-04-26T11:33:39.044Z,1828.00
2024-04-26T11:34:30.183Z,1728.00
2024-04-26T11:35:29.129Z,1612.00
2024-04-26T11:36:29.041Z,1660.00
2024-04-26T11:37:29.008Z,1896.00
2024-04-26T11:38:29.048Z,1988.00
2024-04-26T11:39:29.020Z,1816.00
2024-04-26T11:40:28.998Z,1672.00
2024-04-26T11:41:29.207Z,1640.00
2024-04-26T11:42:28.948Z,1564.00
2024-04-26T11:43:28.938Z,1596.00
2024-04-26T11:44:29.021Z,1660.00
2024-04-26T11:45:28.904Z,1740.00
2024-04-26T11:46:28.914Z,1848.00
2024-04-26T11:47:29.167Z,1844.00
2024-04-26T11:48:29.050Z,1728.00
2024-04-26T11:49:29.058Z,1432.00
2024-04-26T11:50:28.909Z,1136.00
2024-04-26T11:51:28.826Z,1004.00
2024-04-26T11:52:28.814Z,964.00
2024-04-26T11:53:29.020Z,1020.00
2024-04-26T11:54:28.813Z,996.00
2024-04-26T11:55:28.794Z,1056.00
2024-04-26T11:56:28.847Z,1156.00
2024-04-26T11:57:28.839Z,1072.00
2024-04-26T11:58:28.777Z,868.00
2024-04-26T11:59:28.834Z,820.00
2024-04-26T12:00:28.711Z,908.00
2024-04-26T12:01:28.714Z,980.00
2024-04-26T12:02:28.785Z,1036.00
2024-04-26T12:03:28.825Z,1084.00
2024-04-26T12:04:28.731Z,1144.00
2024-04-26T12:05:28.754Z,1108.00
2024-04-26T12:06:28.661Z,1048.00
2024-04-26T12:07:28.620Z,1052.00
2024-04-26T12:08:35.593Z,988.00
2024-04-26T12:09:29.646Z,932.00
2024-04-26T12:10:28.581Z,924.00
2024-04-26T12:11:28.661Z,916.00
2024-04-26T12:12:28.680Z,888.00
2024-04-26T12:13:28.552Z,872.00
2024-04-26T12:14:28.573Z,880.00
2024-04-26T12:15:28.570Z,892.00
2024-04-26T12:16:28.506Z,896.00
2024-04-26T12:17:28.975Z,888.00
2024-04-26T12:18:28.595Z,856.00
2024-04-26T12:19:28.468Z,836.00
2024-04-26T12:20:31.401Z,880.00
2024-04-26T12:21:28.538Z,936.00
2024-04-26T12:22:28.433Z,936.00
2024-04-26T12:23:28.621Z,956.00
2024-04-26T12:24:28.403Z,1016.00
2024-04-26T12:25:28.404Z,1024.00
2024-04-26T12:26:28.522Z,964.00
2024-04-26T12:27:28.416Z,912.00
2024-04-26T12:28:28.341Z,864.00
2024-04-26T12:29:28.397Z,872.00
2024-04-26T12:30:28.312Z,920.00
2024-04-26T12:31:28.328Z,1004.00
2024-04-26T12:32:35.602Z,1080.00
2024-04-26T12:33:35.428Z,1148.00
2024-04-26T12:34:28.422Z,1112.00
2024-04-26T12:35:28.270Z,968.00
2024-04-26T12:36:37.898Z,888.00
2024-04-26T12:37:28.225Z,940.00
2024-04-26T12:38:28.246Z,952.00
2024-04-26T12:39:28.216Z,896.00
2024-04-26T12:40:28.174Z,860.00
2024-04-26T12:41:28.236Z,816.00
2024-04-26T12:42:28.170Z,820.00
2024-04-26T12:43:28.165Z,816.00
2024-04-26T12:44:28.166Z,816.00
2024-04-26T12:45:28.174Z,824.00
2024-04-26T12:46:28.140Z,832.00
2024-04-26T12:47:28.592Z,812.00
2024-04-26T12:48:28.292Z,820.00
2024-04-26T12:49:28.202Z,864.00
2024-04-26T12:50:28.060Z,908.00
2024-04-26T12:51:28.050Z,924.00
2024-04-26T12:52:28.034Z,988.00
2024-04-26T12:53:28.269Z,1092.00
2024-04-26T12:54:28.003Z,1264.00
2024-04-26T12:55:28.006Z,1552.00
2024-04-26T12:56:27.995Z,1792.00
2024-04-26T12:57:28.003Z,1844.00
2024-04-26T12:58:27.949Z,1720.00
2024-04-26T12:59:27.971Z,1680.00
2024-04-26T13:00:27.941Z,1764.00
2024-04-26T13:01:27.911Z,1964.00
2024-04-26T13:02:28.018Z,2016.00
2024-04-26T13:03:28.036Z,2088.00
2024-04-26T13:04:28.130Z,2220.00
2024-04-26T13:05:27.961Z,2304.00